Lenorah, Texas
Current Conditions -  °F | °C
As of 10:15 PM on Thursday 27 Nov 2014 (Local Time) from KBPG Reporting Station
Clear Clear  
Wind Chill: 51°   Ceiling: Unl
Heat Index: 51°   Visibility: 10mi
Dew Point: 31°   Wind: 10mph
Humidity: 46%   Direction: 160°SSE
Pressure: 30.32"   Gusts: NA
Location:  32.3°N, 101.88°W
Report Text: KBPG 280415Z AUTO 16009KT 10SM CLR 11/M01 A3032 RMK AO2 T01051006
Loading
Personal Weather Stations






























Interactive Weather Map New forecast layout! Learn more

10-Day Weather Forecast

Advertisements
Track Severe Weather on mobile